UPSVAC Airport Information Service

Seattle Boeing Field

ICAO: KBFI Country: United States
Latitude: 47.5341 Longitude: -122.306
Latest Arrival : UPS2630 (PANC-KBFI) Latest Departure : UPSJUMP (KBFI-KSDF)


WX CaptureLIVE
Data provided by noaa.gov | Fetched at 14:13:35

METAR : KBFI 141353Z VRB03KT 10SM CLR 06/00 A3024 RMK AO2 SLP240 T00610000

TAF : KBFI 141138Z 1412/1512 00000KT P6SM SKC FM142000 32010G21KT P6SM SKC FM150300 34005KT P6SM SKC FM150700 00000KT P6SM SKC


Runway Data for KBFI
Data provided by openaviationdata.com

Runway ID Mag Var Hdg Length Elevation Surface ILS Freq ILS Id ILS Slope
13L 20 130° 3707 ft 18 ft Asphalt -- -- --
13R 20 130° 9993 ft 18 ft Asphalt 110.9 IBFI 3
31L 20 310° 9993 ft 18 ft Asphalt 110.9 ICHJ 3
31R 20 310° 3707 ft 18 ft Asphalt -- -- --

Seattle Boeing Field, United States
Use only for reference purposes



Not for navigational purposes.